Time;durP1;ratioP1;P1;durP2;ratioP2;P2;SDS_P1;SDS_P2;PMS_P1;PMS_P2;Temp;Humidity;BMP_temperature;BMP_pressure;BME280_temperature;BME280_humidity;BME280_pressure;Samples;Min_cycle;Max_cycle;Signal;HPM_P1;HPM_P2
2023/02/17 00:05:47;;;;;;;111.20;48.70;;;;;;;-0.09;95.90;99626.13;271745;1270;22939;-89
2023/02/17 00:11:59;;;;;;;103.00;46.40;;;;;;;-0.15;96.05;99621.14;271181;1270;22684;-89
2023/02/17 00:18:08;;;;;;;102.20;46.00;;;;;;;-0.18;96.15;99623.98;271870;1269;22351;-90
2023/02/17 00:24:11;;;;;;;108.70;46.40;;;;;;;-0.23;96.19;99627.27;272486;1270;22520;-89
2023/02/17 00:30:16;;;;;;;92.60;42.20;;;;;;;-0.29;96.20;99625.63;271592;1271;22572;-91
2023/02/17 00:36:21;;;;;;;102.80;43.10;;;;;;;-0.28;96.84;99624.70;270870;1270;22333;-89
2023/02/17 00:42:24;;;;;;;93.10;41.10;;;;;;;-0.14;97.06;99617.30;273144;1269;22302;-90
2023/02/17 00:48:32;;;;;;;98.90;43.60;;;;;;;-0.03;97.17;99610.30;273488;1270;23157;-90
2023/02/17 00:54:34;;;;;;;101.50;42.70;;;;;;;-0.00;97.24;99604.69;273489;1269;22472;-91
2023/02/17 01:00:37;;;;;;;97.70;43.50;;;;;;;-0.06;97.23;99595.17;273511;1269;22800;-91
2023/02/17 01:06:40;;;;;;;94.40;39.60;;;;;;;-0.13;97.06;99587.91;273380;1268;22327;-91
2023/02/17 01:12:45;;;;;;;95.90;43.30;;;;;;;-0.21;96.85;99586.45;272555;1266;22210;-90
2023/02/17 01:18:57;;;;;;;90.80;40.00;;;;;;;-0.32;96.99;99580.91;270799;1269;23243;-90
2023/02/17 01:25:02;;;;;;;84.40;39.10;;;;;;;-0.43;96.91;99564.38;272309;1270;22455;-90
2023/02/17 01:31:08;;;;;;;69.90;32.30;;;;;;;-0.52;97.19;99554.66;270870;1269;22526;-90
2023/02/17 01:37:15;;;;;;;101.50;45.30;;;;;;;-0.63;97.18;99550.76;271526;1269;23315;-91
2023/02/17 01:43:18;;;;;;;98.60;45.70;;;;;;;-0.76;96.97;99537.00;271757;1269;22958;-90
2023/02/17 01:49:26;;;;;;;77.60;36.80;;;;;;;-0.90;96.90;99530.28;273356;1269;22229;-90
2023/02/17 01:55:39;;;;;;;94.40;41.60;;;;;;;-0.95;97.51;99527.98;272400;1269;23367;-90
2023/02/17 02:01:57;;;;;;;108.40;47.90;;;;;;;-0.96;97.46;99533.73;273458;1269;22311;-91
2023/02/17 02:08:04;;;;;;;101.50;46.80;;;;;;;-1.14;96.86;99530.63;272858;1269;23263;-91
2023/02/17 02:14:12;;;;;;;114.20;53.90;;;;;;;-1.17;97.38;99525.50;273115;1269;22588;-92
2023/02/17 02:20:45;;;;;;;95.20;41.90;;;;;;;-1.23;97.15;99521.76;270773;1270;22608;-91
2023/02/17 02:27:05;;;;;;;110.60;48.60;;;;;;;-1.27;97.63;99520.24;270623;1270;22549;-92
2023/02/17 02:33:25;;;;;;;91.00;43.20;;;;;;;-1.26;97.94;99518.73;271155;1270;22223;-93
2023/02/17 02:39:41;;;;;;;90.60;43.80;;;;;;;-1.23;98.49;99524.83;271818;1259;22663;-91
2023/02/17 02:45:48;;;;;;;92.60;42.50;;;;;;;-1.22;98.56;99527.65;273430;1269;22205;-91
2023/02/17 02:52:05;;;;;;;91.50;43.10;;;;;;;-1.20;98.59;99523.05;272231;1270;25431;-91
2023/02/17 02:58:57;;;;;;;;;;;;;;;;;;;;;
2023/02/17 03:05:57;;;;;;;99.60;47.00;;;;;;;-1.07;99.00;99529.41;270332;1269;22671;-92
2023/02/17 03:12:32;;;;;;;107.00;49.20;;;;;;;-1.00;99.54;99525.94;272158;1270;22496;-91
2023/02/17 03:19:29;;;;;;;105.20;48.60;;;;;;;-0.91;99.96;99516.22;271862;1269;22523;-92
2023/02/17 03:32:46;;;;;;;121.60;54.90;;;;;;;-0.92;99.86;99509.99;270654;1263;22671;-92
2023/02/17 03:39:00;;;;;;;109.90;52.00;;;;;;;-0.94;100.00;99512.22;270067;1269;24233;-91
2023/02/17 03:45:07;;;;;;;100.90;48.40;;;;;;;-0.92;100.00;99507.25;270180;1266;22556;-91
2023/02/17 03:51:24;;;;;;;108.00;50.30;;;;;;;-0.91;100.00;99515.25;270735;1265;23970;-92
2023/02/17 03:57:32;;;;;;;95.60;45.70;;;;;;;-0.87;100.00;99503.50;270397;1270;23255;-93
2023/02/17 04:03:44;;;;;;;103.50;48.00;;;;;;;-0.80;100.00;99496.57;271060;1272;22501;-90
2023/02/17 04:09:59;;;;;;;96.90;45.20;;;;;;;-0.69;100.00;99490.61;272443;1269;22228;-91
2023/02/17 04:16:10;;;;;;;105.40;47.70;;;;;;;-0.57;100.00;99484.91;271746;1270;22682;-91
2023/02/17 04:22:20;;;;;;;111.50;49.70;;;;;;;-0.49;100.00;99482.95;272116;1269;22584;-91
2023/02/17 04:28:27;;;;;;;108.50;47.40;;;;;;;-0.41;100.00;99478.38;272360;1270;22354;-91
2023/02/17 04:34:34;;;;;;;104.40;48.80;;;;;;;-0.33;100.00;99481.23;271727;1269;23701;-92
2023/02/17 04:40:39;;;;;;;103.00;47.50;;;;;;;-0.25;100.00;99475.72;271600;1269;22545;-91
2023/02/17 04:46:53;;;;;;;100.20;45.80;;;;;;;-0.18;100.00;99469.73;270336;1269;22546;-92
2023/02/17 04:53:27;;;;;;;;;;;;;;;;;;;;;
2023/02/17 04:59:56;;;;;;;92.00;43.90;;;;;;;-0.09;100.00;99466.42;272537;1269;22349;-93
2023/02/17 05:06:03;;;;;;;89.30;43.70;;;;;;;-0.08;100.00;99464.19;271220;1269;22555;-92
2023/02/17 05:20:35;;;;;;;;;;;;;;;;;;;;;
2023/02/17 05:35:00;;;;;;;;;;;;;;;;;;;;;
2023/02/17 05:41:57;;;;;;;96.40;45.00;;;;;;;0.05;100.00;99461.40;271386;1269;22585;-93
2023/02/17 05:48:44;;;;;;;89.70;44.50;;;;;;;0.08;100.00;99457.31;270952;1275;22539;-93
2023/02/17 05:54:56;;;;;;;78.20;38.50;;;;;;;0.19;100.00;99448.73;269880;1272;22533;-93
2023/02/17 06:08:23;;;;;;;87.90;43.80;;;;;;;0.42;100.00;99434.09;270516;1271;23350;-93
2023/02/17 06:15:24;;;;;;;;;;;;;;;;;;;;;
2023/02/17 06:22:10;;;;;;;;;;;;;;;;;;;;;
2023/02/17 06:28:54;;;;;;;99.10;47.50;;;;;;;0.79;100.00;99418.84;269960;1269;27621;-92
2023/02/17 06:35:23;;;;;;;99.20;48.00;;;;;;;0.85;100.00;99409.72;269986;1270;22658;-93
2023/02/17 06:41:46;;;;;;;103.50;52.60;;;;;;;0.92;100.00;99404.90;269763;1270;23048;-92
2023/02/17 06:48:03;;;;;;;115.10;56.90;;;;;;;0.99;100.00;99400.20;270067;1270;22537;-93
2023/02/17 07:01:52;;;;;;;120.00;56.80;;;;;;;1.16;100.00;99407.44;271333;1272;22314;-93
2023/02/17 07:08:07;;;;;;;115.60;54.40;;;;;;;1.29;100.00;99418.84;270423;1272;22731;-90
2023/02/17 07:14:10;;;;;;;105.40;51.20;;;;;;;1.44;100.00;99418.46;272239;1272;22257;-90
2023/02/17 07:20:15;;;;;;;113.70;55.10;;;;;;;1.57;100.00;99416.80;273344;1270;22343;-90
2023/02/17 07:26:18;;;;;;;117.10;60.50;;;;;;;1.68;100.00;99426.50;271535;1270;22587;-91
2023/02/17 07:32:23;;;;;;;108.50;54.20;;;;;;;1.74;100.00;99421.30;272962;1270;23244;-90
2023/02/17 07:38:25;;;;;;;120.60;57.80;;;;;;;1.86;100.00;99418.12;273512;1270;23182;-89
2023/02/17 07:44:27;;;;;;;128.00;62.10;;;;;;;2.02;100.00;99407.55;273607;1269;22404;-89
2023/02/17 07:50:30;;;;;;;127.30;65.00;;;;;;;2.18;100.00;99395.23;271333;1270;22195;-89
2023/02/17 07:56:49;;;;;;;119.00;61.80;;;;;;;2.38;100.00;99385.61;273389;1270;22984;-89
2023/02/17 08:03:02;;;;;;;129.30;65.40;;;;;;;2.64;100.00;99378.67;272986;1268;22403;-91
2023/02/17 08:15:25;;;;;;;117.70;60.00;;;;;;;3.34;100.00;99370.23;273319;1269;23328;-90
2023/02/17 08:21:28;;;;;;;116.30;58.70;;;;;;;3.63;100.00;99366.49;273208;1269;22340;-91
2023/02/17 08:27:55;;;;;;;;;;;;;;;;;;;;;
2023/02/17 08:34:13;;;;;;;96.40;49.00;;;;;;;4.30;100.00;99349.50;273235;1270;25229;-91
2023/02/17 08:40:46;;;;;;;100.30;47.40;;;;;;;4.84;100.00;99356.38;272261;1270;25256;-91
2023/02/17 08:47:09;;;;;;;112.70;54.90;;;;;;;5.30;100.00;99346.92;269960;1264;25545;-91
2023/02/17 08:53:33;;;;;;;96.00;55.10;;;;;;;5.78;100.00;99336.66;272363;1270;22330;-91
2023/02/17 08:59:35;;;;;;;88.60;43.10;;;;;;;6.21;100.00;99333.27;273549;1270;22317;-90
2023/02/17 09:05:37;;;;;;;79.90;42.00;;;;;;;6.44;100.00;99328.99;273020;1273;23122;-92
2023/02/17 09:11:39;;;;;;;71.70;40.70;;;;;;;6.53;99.89;99329.52;271608;1270;22398;-90
2023/02/17 09:17:42;;;;;;;74.10;41.80;;;;;;;6.59;99.51;99331.10;270748;1270;25434;-89
2023/02/17 09:23:44;;;;;;;76.00;40.20;;;;;;;6.57;98.91;99326.63;269546;1270;23740;-91
2023/02/17 09:29:49;;;;;;;68.40;39.90;;;;;;;6.53;98.39;99326.86;269415;1270;211165;-91
2023/02/17 09:35:51;;;;;;;78.30;41.60;;;;;;;6.39;98.57;99328.99;270057;1273;22668;-91
2023/02/17 09:41:56;;;;;;;72.70;41.30;;;;;;;6.22;99.16;99321.42;269377;1270;22537;-90
2023/02/17 09:48:02;;;;;;;79.90;43.70;;;;;;;6.11;99.94;99309.57;272910;1270;22432;-91
2023/02/17 09:54:20;;;;;;;86.80;47.00;;;;;;;6.17;100.00;99295.01;269910;1270;23823;-90
2023/02/17 10:00:44;;;;;;;88.00;50.20;;;;;;;6.45;100.00;99293.73;271829;1270;22673;-90
2023/02/17 10:06:53;;;;;;;95.50;48.80;;;;;;;6.75;100.00;99297.95;272012;1273;22266;-90
2023/02/17 10:13:04;;;;;;;88.00;47.80;;;;;;;6.98;100.00;99297.41;272855;1270;22384;-90
2023/02/17 10:19:45;;;;;;;50.40;28.90;;;;;;;7.14;100.00;99285.66;270884;1270;22952;-90
2023/02/17 10:26:21;;;;;;;33.70;18.60;;;;;;;7.32;100.00;99270.88;270756;1270;22648;-90
2023/02/17 10:32:25;;;;;;;34.80;18.60;;;;;;;7.51;100.00;99267.35;270390;1270;23109;-92
2023/02/17 10:38:46;;;;;;;30.90;17.20;;;;;;;7.68;100.00;99259.09;271935;1269;23267;-91
2023/02/17 10:45:09;;;;;;;27.50;16.20;;;;;;;7.84;100.00;99255.70;271099;1269;22565;-90
2023/02/17 10:51:27;;;;;;;30.00;16.10;;;;;;;7.95;100.00;99251.96;272171;1269;22203;-91
2023/02/17 11:04:39;;;;;;;;;;;;;;;;;;;;;
2023/02/17 11:17:45;;;;;;;22.70;12.60;;;;;;;8.02;100.00;99216.38;272915;1274;22299;-91
2023/02/17 11:24:09;;;;;;;22.30;14.50;;;;;;;7.97;100.00;99212.73;272313;1273;23597;-89
2023/02/17 11:30:19;;;;;;;23.50;14.90;;;;;;;7.89;100.00;99204.51;271949;1275;23733;-91
2023/02/17 11:36:31;;;;;;;19.30;12.50;;;;;;;7.75;100.00;99193.03;271450;1275;24335;-91
2023/02/17 11:43:04;;;;;;;17.60;10.00;;;;;;;7.68;100.00;99186.53;268973;1275;23523;-91
2023/02/17 11:49:24;;;;;;;13.70;9.70;;;;;;;7.68;100.00;99181.10;269297;1270;25317;-90
2023/02/17 11:56:01;;;;;;;18.50;10.70;;;;;;;7.69;100.00;99166.23;271210;1275;23788;-90
2023/02/17 12:02:50;;;;;;;15.60;9.40;;;;;;;7.71;100.00;99149.31;269678;1271;23810;-90
2023/02/17 12:09:29;;;;;;;13.20;8.90;;;;;;;7.69;99.90;99141.80;272374;1275;22344;-91
2023/02/17 12:16:22;;;;;;;17.00;9.10;;;;;;;7.69;99.74;99140.86;272362;1276;22238;-91
2023/02/17 12:22:32;;;;;;;15.20;9.10;;;;;;;7.74;99.79;99132.42;272054;1275;22359;-91
2023/02/17 12:28:56;;;;;;;21.80;10.50;;;;;;;7.87;99.75;99131.55;271679;1275;22582;-89
2023/02/17 12:35:29;;;;;;;14.00;9.00;;;;;;;7.93;99.41;99125.95;270461;1275;22888;-90
2023/02/17 12:41:40;;;;;;;11.70;7.70;;;;;;;7.99;99.48;99121.28;269786;1275;22369;-90
2023/02/17 12:47:59;;;;;;;13.80;8.70;;;;;;;8.04;98.52;99116.86;269433;1275;22860;-91
2023/02/17 12:54:18;;;;;;;12.00;7.30;;;;;;;8.08;98.51;99107.66;272159;1274;22286;-91
2023/02/17 13:00:51;;;;;;;13.20;8.00;;;;;;;8.10;98.29;99097.14;272454;1275;22366;-92
2023/02/17 13:07:28;;;;;;;;;;;;;;;;;;;;;
2023/02/17 13:13:39;;;;;;;12.10;7.30;;;;;;;8.10;97.62;99086.94;272286;1276;22666;-92
2023/02/17 13:19:47;;;;;;;12.90;7.60;;;;;;;8.07;97.47;99079.84;271412;1274;23406;-90
2023/02/17 13:26:13;;;;;;;14.00;7.90;;;;;;;8.00;97.37;99068.80;272346;1275;22343;-91
2023/02/17 13:32:32;;;;;;;11.00;6.60;;;;;;;7.98;97.26;99054.19;272457;1275;22361;-91
2023/02/17 13:39:14;;;;;;;11.10;7.40;;;;;;;8.03;97.20;99048.76;272389;1278;23274;-90
2023/02/17 13:45:53;;;;;;;9.90;6.20;;;;;;;8.13;97.14;99039.39;270564;1275;25327;-92
2023/02/17 13:52:19;;;;;;;11.80;6.80;;;;;;;8.20;96.91;99028.72;270432;1275;22350;-91
2023/02/17 13:58:49;;;;;;;10.30;6.90;;;;;;;8.27;96.60;99018.30;271023;1275;22607;-90
2023/02/17 14:05:15;;;;;;;9.20;5.60;;;;;;;8.32;96.43;99005.70;271229;1275;22662;-92
2023/02/17 14:11:20;;;;;;;9.60;6.70;;;;;;;8.34;96.19;98994.35;271398;1275;23188;-90
2023/02/17 14:17:30;;;;;;;9.80;5.60;;;;;;;8.39;96.22;98989.80;269708;1274;22565;-91
2023/02/17 14:23:44;;;;;;;10.30;6.50;;;;;;;8.42;95.90;98982.66;269333;1275;22577;-90
2023/02/17 14:29:49;;;;;;;10.10;6.20;;;;;;;8.43;95.86;98977.62;271222;1275;22380;-90
2023/02/17 14:36:09;;;;;;;8.70;5.80;;;;;;;8.41;95.43;98966.59;271350;1275;22507;-91
2023/02/17 14:42:12;;;;;;;10.90;6.90;;;;;;;8.35;95.08;98954.86;269518;1275;24212;-90
2023/02/17 14:48:17;;;;;;;10.10;6.40;;;;;;;8.28;95.33;98942.50;269594;1275;22591;-90
2023/02/17 14:54:24;;;;;;;;;;;;;;;8.20;95.18;98935.84;269519;1275;22545;-91
2023/02/17 15:00:36;;;;;;;11.40;6.90;;;;;;;8.15;95.21;98932.00;270394;1275;22528;-92
2023/02/17 15:07:07;;;;;;;10.70;6.80;;;;;;;8.11;95.16;98927.64;271748;1275;22658;-92
2023/02/17 15:14:09;;;;;;;10.70;6.40;;;;;;;8.06;95.27;98918.59;270849;1275;25333;-91
2023/02/17 15:20:41;;;;;;;;;;;;;;;;;;;;;
2023/02/17 15:27:22;;;;;;;;;;;;;;;;;;;;;
2023/02/17 15:34:11;;;;;;;9.00;5.60;;;;;;;7.78;96.43;98893.58;270414;1273;22518;-89
2023/02/17 15:40:26;;;;;;;9.20;5.20;;;;;;;7.67;96.77;98885.02;272767;1278;22245;-91
2023/02/17 15:46:44;;;;;;;14.40;8.80;;;;;;;7.56;97.05;98870.24;271765;1269;23065;-88
2023/02/17 15:52:58;;;;;;;11.00;6.40;;;;;;;7.42;97.34;98859.51;270797;1262;25831;-91
2023/02/17 15:59:24;;;;;;;9.90;6.10;;;;;;;7.21;97.86;98837.81;272354;1274;22419;-89
2023/02/17 16:05:29;;;;;;;11.00;6.00;;;;;;;7.04;98.51;98819.71;271765;1274;22383;-88
2023/02/17 16:11:33;;;;;;;9.10;5.70;;;;;;;6.91;99.06;98809.70;271960;1273;23483;-91
2023/02/17 16:17:38;;;;;;;12.00;6.20;;;;;;;6.83;99.30;98800.51;272175;1276;23201;-91
2023/02/17 16:31:54;;;;;;;9.30;5.40;;;;;;;6.73;99.99;98779.67;270596;1277;22408;-89
2023/02/17 16:38:37;;;;;;;11.10;5.70;;;;;;;6.72;100.00;98770.86;272239;1276;22343;-90
2023/02/17 16:44:43;;;;;;;11.40;5.90;;;;;;;6.73;100.00;98769.41;272171;1277;22407;-91
2023/02/17 16:50:52;;;;;;;9.30;5.40;;;;;;;6.74;100.00;98769.34;270509;1277;22326;-89
2023/02/17 16:57:01;;;;;;;10.00;5.70;;;;;;;6.79;100.00;98770.34;271371;1275;22664;-92
2023/02/17 17:03:39;;;;;;;;;;;;;;;;;;;;;
2023/02/17 17:18:26;;;;;;;9.80;6.20;;;;;;;6.94;100.00;98730.00;270858;1280;22807;-91
2023/02/17 17:26:29;;;;;;;;;;;;;;;;;;;;;
2023/02/17 17:33:37;;;;;;;13.10;7.50;;;;;;;7.06;100.00;98717.48;271829;1275;23200;-89
2023/02/17 17:40:54;;;;;;;14.20;7.70;;;;;;;7.08;100.00;98713.03;271474;1263;23934;-91
2023/02/17 17:47:01;;;;;;;13.70;6.80;;;;;;;7.14;100.00;98697.35;271550;1275;22536;-91
2023/02/17 17:53:05;;;;;;;13.00;5.80;;;;;;;7.18;100.00;98692.16;271549;1275;22485;-91
2023/02/17 17:59:42;;;;;;;12.60;6.30;;;;;;;7.23;100.00;98676.84;271543;1275;22881;-90
2023/02/17 18:06:30;;;;;;;16.80;8.70;;;;;;;7.30;100.00;98672.08;271491;1275;22350;-89
2023/02/17 18:13:07;;;;;;;;;;;;;;;;;;;;;
2023/02/17 18:19:54;;;;;;;14.80;6.80;;;;;;;7.40;100.00;98683.55;269978;1271;23840;-91
2023/02/17 18:26:11;;;;;;;14.50;7.60;;;;;;;7.47;100.00;98695.51;271633;1275;22450;-90
2023/02/17 18:32:28;;;;;;;;;;;;;;;;;;;;;
2023/02/17 18:38:38;;;;;;;14.60;6.50;;;;;;;7.55;100.00;98682.17;272369;1275;22350;-89
2023/02/17 18:44:52;;;;;;;12.50;6.70;;;;;;;7.59;100.00;98672.86;270878;1273;23278;-92
2023/02/17 18:51:27;;;;;;;;;;;;;;;;;;;;;
2023/02/17 18:58:14;;;;;;;;;;;;;;;;;;;;;
2023/02/17 19:04:32;;;;;;;;;;;;;;;;;;;;;
2023/02/17 19:10:43;;;;;;;12.60;6.70;;;;;;;7.36;100.00;98655.92;271240;1275;22331;-91
2023/02/17 19:16:51;;;;;;;14.00;7.70;;;;;;;7.37;100.00;98665.83;270916;1275;22594;-90
2023/02/17 19:23:03;;;;;;;12.10;7.20;;;;;;;7.45;100.00;98664.41;270431;1277;22577;-91
2023/02/17 19:29:10;;;;;;;12.40;6.30;;;;;;;7.52;100.00;98665.09;270170;1275;22541;-90
2023/02/17 19:43:25;;;;;;;13.60;7.80;;;;;;;7.75;100.00;98669.39;270923;1273;22583;-92
2023/02/17 19:49:59;;;;;;;15.40;6.70;;;;;;;8.08;100.00;98668.67;270872;1275;22581;-91
2023/02/17 19:56:52;;;;;;;14.30;6.40;;;;;;;8.37;100.00;98675.29;271075;1275;22499;-89
2023/02/17 20:03:28;;;;;;;;;;;;;;;;;;;;;
2023/02/17 20:09:49;;;;;;;11.70;7.00;;;;;;;8.66;100.00;98667.60;270759;1275;22347;-90
2023/02/17 20:16:15;;;;;;;14.50;6.90;;;;;;;8.67;100.00;98669.02;269947;1275;23149;-90
2023/02/17 20:22:19;;;;;;;11.90;8.10;;;;;;;8.73;100.00;98681.89;269239;1275;22618;-90
2023/02/17 20:28:24;;;;;;;11.70;7.00;;;;;;;8.71;100.00;98689.73;269837;1275;22579;-89
2023/02/17 20:34:36;;;;;;;10.90;7.00;;;;;;;8.67;100.00;98678.30;269321;1270;22552;-91
2023/02/17 20:40:41;;;;;;;10.90;7.80;;;;;;;8.65;100.00;98669.30;268720;1275;22583;-91
2023/02/17 20:46:46;;;;;;;10.40;8.00;;;;;;;8.65;100.00;98667.36;269518;1275;25384;-90
2023/02/17 20:53:27;;;;;;;11.10;7.30;;;;;;;8.70;100.00;98670.69;269647;1280;22375;-90
2023/02/17 20:59:29;;;;;;;11.40;7.70;;;;;;;8.71;100.00;98670.16;268756;1276;25373;-89
2023/02/17 21:05:31;;;;;;;14.40;10.30;;;;;;;8.68;100.00;98663.02;270203;1275;22547;-91
2023/02/17 21:11:34;;;;;;;10.30;7.80;;;;;;;8.67;100.00;98653.89;269338;1275;23322;-90
2023/02/17 21:17:40;;;;;;;9.60;6.80;;;;;;;8.67;100.00;98641.73;269382;1275;22799;-90
2023/02/17 21:23:49;;;;;;;11.10;7.80;;;;;;;8.68;100.00;98640.27;271026;1275;22331;-90
2023/02/17 21:29:51;;;;;;;13.80;8.10;;;;;;;8.72;100.00;98637.43;268880;1273;137983;-90
2023/02/17 21:36:05;;;;;;;14.70;7.80;;;;;;;8.80;100.00;98637.61;268916;1275;27509;-90
2023/02/17 21:42:10;;;;;;;12.90;8.90;;;;;;;8.86;100.00;98634.56;269664;1275;22499;-90
2023/02/17 21:48:21;;;;;;;8.60;6.90;;;;;;;9.00;100.00;98616.02;269973;1275;22581;-90
2023/02/17 21:54:29;;;;;;;14.70;8.50;;;;;;;9.15;100.00;98611.88;269188;1275;22416;-92
2023/02/17 22:00:46;;;;;;;11.70;7.70;;;;;;;9.29;100.00;98607.49;269852;1276;23002;-92
2023/02/17 22:07:05;;;;;;;10.60;8.50;;;;;;;9.42;100.00;98613.80;271779;1275;22539;-91
2023/02/17 22:13:07;;;;;;;9.80;5.30;;;;;;;9.51;100.00;98599.05;269845;1274;23355;-90
2023/02/17 22:19:17;;;;;;;5.20;3.80;;;;;;;9.54;100.00;98581.27;271111;1276;22180;-92
2023/02/17 22:25:20;;;;;;;5.60;3.70;;;;;;;9.58;100.00;98574.96;270633;1275;24357;-89
2023/02/17 22:31:27;;;;;;;6.00;4.30;;;;;;;9.59;100.00;98575.93;268784;1275;25287;-90
2023/02/17 22:37:31;;;;;;;5.60;3.90;;;;;;;9.53;100.00;98571.90;268598;1275;23745;-90
2023/02/17 22:43:36;;;;;;;6.50;4.50;;;;;;;9.51;100.00;98578.98;270600;1275;22486;-90
2023/02/17 22:49:38;;;;;;;7.80;3.80;;;;;;;9.56;100.00;98585.81;268896;1272;25215;-89
2023/02/17 22:55:40;;;;;;;6.80;3.50;;;;;;;9.72;100.00;98587.66;270330;1276;22556;-90
2023/02/17 23:01:52;;;;;;;8.40;5.60;;;;;;;9.90;100.00;98607.33;269479;1275;22663;-90
2023/02/17 23:07:57;;;;;;;5.30;3.60;;;;;;;9.99;100.00;98639.27;268776;1276;22579;-92
2023/02/17 23:14:02;;;;;;;8.70;5.90;;;;;;;9.94;100.00;98615.25;268851;1275;23731;-91
2023/02/17 23:20:11;;;;;;;5.10;3.50;;;;;;;9.88;100.00;98598.48;268633;1264;22541;-91
2023/02/17 23:26:18;;;;;;;7.70;4.80;;;;;;;9.86;100.00;98615.34;268404;1275;22542;-92
2023/02/17 23:32:28;;;;;;;8.70;5.30;;;;;;;9.86;100.00;98629.88;270211;1275;22541;-90
2023/02/17 23:38:30;;;;;;;10.50;5.60;;;;;;;9.76;100.00;98639.87;268614;1278;22567;-91
2023/02/17 23:44:32;;;;;;;12.60;6.30;;;;;;;9.60;100.00;98646.05;268550;1275;25549;-91
2023/02/17 23:50:45;;;;;;;8.90;5.20;;;;;;;9.41;100.00;98645.16;268763;1271;22683;-90
2023/02/17 23:57:09;;;;;;;18.70;7.40;;;;;;;9.20;100.00;98644.55;268399;1281;22567;-91
